createdAt,value
2019-05-01T00:01:15.754Z,17.64
2019-05-01T00:04:05.193Z,17.48
2019-05-01T00:06:45.035Z,17.54
2019-05-01T00:09:16.993Z,17.48
2019-05-01T00:11:49.674Z,17.50
2019-05-01T00:14:22.713Z,17.50
2019-05-01T00:16:55.149Z,17.49
2019-05-01T00:19:26.883Z,17.43
2019-05-01T00:21:59.025Z,17.35
2019-05-01T00:24:32.218Z,17.38
2019-05-01T00:27:20.438Z,17.42
2019-05-01T00:29:59.617Z,17.28
2019-05-01T00:32:29.870Z,17.38
2019-05-01T00:35:01.778Z,17.26
2019-05-01T00:37:32.522Z,17.28
2019-05-01T00:40:03.638Z,17.31
2019-05-01T00:42:34.308Z,17.14
2019-05-01T00:45:08.260Z,17.25
2019-05-01T00:47:40.125Z,17.20
2019-05-01T00:50:11.589Z,17.18
2019-05-01T00:52:42.814Z,17.16
2019-05-01T00:55:33.373Z,17.17
2019-05-01T00:58:17.020Z,17.22
2019-05-01T01:00:57.458Z,17.00
2019-05-01T01:03:29.377Z,16.90
2019-05-01T01:06:00.293Z,17.01
2019-05-01T01:08:35.299Z,16.99
2019-05-01T01:11:07.834Z,16.99
2019-05-01T01:13:38.023Z,16.91
2019-05-01T01:16:11.967Z,16.82
2019-05-01T01:18:43.499Z,16.87
2019-05-01T01:21:14.435Z,16.59
2019-05-01T01:23:47.613Z,16.79
2019-05-01T01:26:18.561Z,16.84
2019-05-01T01:28:50.604Z,16.73
2019-05-01T01:31:22.919Z,16.70
2019-05-01T01:33:53.198Z,16.50
2019-05-01T01:36:23.391Z,16.53
2019-05-01T01:38:53.957Z,16.57
2019-05-01T01:41:25.143Z,16.61
2019-05-01T01:44:23.470Z,16.65
2019-05-01T01:46:57.071Z,16.53
2019-05-01T01:49:27.826Z,16.50
2019-05-01T01:52:00.639Z,16.43
2019-05-01T01:54:33.616Z,16.49
2019-05-01T01:57:05.874Z,16.53
2019-05-01T01:59:37.605Z,16.47
2019-05-01T02:02:17.771Z,16.52
2019-05-01T02:05:24.913Z,16.01
2019-05-01T02:07:58.269Z,16.23
2019-05-01T02:10:42.264Z,16.42
2019-05-01T02:13:03.835Z,16.14
2019-05-01T02:15:35.108Z,16.32
2019-05-01T02:18:05.886Z,16.25
2019-05-01T02:20:39.972Z,16.35
2019-05-01T02:23:11.792Z,16.09
2019-05-01T02:25:46.814Z,16.27
2019-05-01T02:28:29.027Z,16.12
2019-05-01T02:31:29.304Z,16.29
2019-05-01T02:34:02.541Z,16.12
2019-05-01T02:36:37.448Z,16.01
2019-05-01T02:39:12.837Z,16.02
2019-05-01T02:41:46.138Z,16.11
2019-05-01T02:44:21.612Z,15.91
2019-05-01T02:46:55.172Z,15.86
2019-05-01T02:49:39.113Z,15.96
2019-05-01T02:52:12.862Z,15.85
2019-05-01T02:54:47.851Z,16.01
2019-05-01T02:57:25.054Z,15.51
2019-05-01T02:59:59.258Z,15.73
2019-05-01T03:02:35.395Z,15.88
2019-05-01T03:05:08.614Z,15.81
2019-05-01T03:07:46.268Z,15.82
2019-05-01T03:10:19.115Z,15.88
2019-05-01T03:12:52.987Z,15.52
2019-05-01T03:15:28.434Z,15.79
2019-05-01T03:18:26.546Z,15.75
2019-05-01T03:21:22.438Z,15.83
2019-05-01T03:23:58.337Z,15.80
2019-05-01T03:26:31.182Z,15.62
2019-05-01T03:29:02.773Z,15.65
2019-05-01T03:31:33.613Z,15.60
2019-05-01T03:34:08.883Z,15.69
2019-05-01T03:36:41.295Z,15.54
2019-05-01T03:39:12.074Z,15.71
2019-05-01T03:41:44.421Z,15.46
2019-05-01T03:44:17.975Z,15.60
2019-05-01T03:46:51.829Z,15.50
2019-05-01T03:49:23.314Z,15.71
2019-05-01T03:51:54.170Z,15.85
2019-05-01T03:54:35.372Z,15.64
2019-05-01T03:57:06.116Z,15.55
2019-05-01T03:59:47.231Z,15.95
2019-05-01T04:02:34.168Z,15.85
2019-05-01T04:05:06.762Z,15.51
2019-05-01T04:07:39.065Z,15.98
2019-05-01T04:10:11.960Z,15.71
2019-05-01T04:12:45.347Z,15.81
2019-05-01T04:15:16.286Z,15.95
2019-05-01T04:17:55.411Z,15.84
2019-05-01T04:20:28.000Z,15.98
2019-05-01T04:23:00.578Z,16.07
2019-05-01T04:25:31.997Z,15.92
2019-05-01T04:28:22.831Z,16.17
2019-05-01T04:31:14.894Z,16.13
2019-05-01T04:33:56.659Z,16.04
2019-05-01T04:36:35.952Z,16.18
2019-05-01T04:39:12.103Z,16.22
2019-05-01T04:41:45.802Z,15.11
2019-05-01T04:44:17.554Z,15.85
2019-05-01T04:46:49.259Z,15.41
2019-05-01T04:49:21.374Z,15.78
2019-05-01T04:51:52.537Z,15.63
2019-05-01T04:54:23.596Z,15.77
2019-05-01T04:56:56.408Z,15.84
2019-05-01T04:59:28.105Z,15.86
2019-05-01T05:02:04.508Z,15.95
2019-05-01T05:04:36.583Z,15.99
2019-05-01T05:07:06.763Z,15.84
2019-05-01T05:09:47.728Z,15.96
2019-05-01T05:12:31.687Z,15.95
2019-05-01T05:15:19.674Z,15.49
2019-05-01T05:17:51.301Z,15.84
2019-05-01T05:20:23.092Z,15.34
2019-05-01T05:22:55.860Z,15.18
2019-05-01T05:25:27.818Z,15.42
2019-05-01T05:28:00.440Z,14.80
2019-05-01T05:30:38.898Z,15.28
2019-05-01T05:33:18.641Z,15.53
2019-05-01T05:35:51.430Z,14.64
2019-05-01T05:38:44.202Z,15.15
2019-05-01T05:41:16.392Z,15.44
2019-05-01T05:43:48.476Z,15.68
2019-05-01T05:46:20.624Z,15.64
2019-05-01T05:48:52.436Z,15.71
2019-05-01T05:51:44.234Z,15.97
2019-05-01T05:54:43.392Z,15.99
2019-05-01T05:57:30.008Z,16.34
2019-05-01T06:00:26.538Z,16.28
2019-05-01T06:03:32.451Z,16.37
2019-05-01T06:06:53.114Z,16.46
2019-05-01T06:09:34.440Z,16.27
2019-05-01T06:12:25.941Z,16.37
2019-05-01T06:15:09.789Z,16.23
2019-05-01T06:17:46.650Z,15.94
2019-05-01T06:20:41.637Z,15.44
2019-05-01T06:23:45.000Z,16.18
2019-05-01T06:26:37.416Z,16.48
2019-05-01T06:29:07.416Z,16.45
2019-05-01T06:31:39.792Z,16.46
2019-05-01T06:34:10.241Z,15.91
2019-05-01T06:36:49.648Z,16.40
2019-05-01T06:39:26.826Z,16.43
2019-05-01T06:42:00.548Z,16.57
2019-05-01T06:44:44.314Z,16.65
2019-05-01T06:47:43.144Z,16.60
2019-05-01T06:50:27.285Z,16.20
2019-05-01T06:52:59.993Z,16.36
2019-05-01T06:55:34.248Z,16.68
2019-05-01T06:58:04.989Z,16.80
2019-05-01T07:00:39.191Z,17.07
2019-05-01T07:03:10.459Z,16.93
2019-05-01T07:05:44.645Z,16.98
2019-05-01T07:08:24.327Z,17.21
2019-05-01T07:10:48.488Z,17.41
2019-05-01T07:13:19.460Z,17.41
2019-05-01T07:15:51.705Z,17.45
2019-05-01T07:18:24.103Z,17.51
2019-05-01T07:20:55.837Z,17.68
2019-05-01T07:23:27.418Z,17.75
2019-05-01T07:25:58.448Z,17.71
2019-05-01T07:28:34.378Z,17.52
2019-05-01T07:31:08.049Z,17.60
2019-05-01T07:33:40.216Z,16.75
2019-05-01T07:36:16.540Z,17.42
2019-05-01T07:38:52.150Z,17.47
2019-05-01T07:41:23.737Z,17.56
2019-05-01T07:44:21.120Z,17.35
2019-05-01T07:47:16.990Z,17.12
2019-05-01T07:50:00.449Z,17.25
2019-05-01T07:52:31.181Z,16.56
2019-05-01T07:55:02.874Z,16.71
2019-05-01T07:57:39.259Z,16.33
2019-05-01T08:00:12.793Z,16.17
2019-05-01T08:02:45.289Z,16.07
2019-05-01T08:05:21.948Z,16.37
2019-05-01T08:07:54.807Z,16.62
2019-05-01T08:10:30.647Z,16.97
2019-05-01T08:13:00.511Z,17.00
2019-05-01T08:15:32.672Z,16.71
2019-05-01T08:18:24.104Z,16.97
2019-05-01T08:21:11.757Z,16.80
2019-05-01T08:23:47.187Z,17.28
2019-05-01T08:26:17.899Z,17.40
2019-05-01T08:29:08.151Z,17.37
2019-05-01T08:31:51.016Z,16.94
2019-05-01T08:34:25.348Z,16.43
2019-05-01T08:36:59.657Z,17.05
2019-05-01T08:39:30.825Z,17.40
2019-05-01T08:42:07.030Z,17.49
2019-05-01T08:44:44.739Z,17.46
2019-05-01T08:47:27.858Z,17.30
2019-05-01T08:50:15.352Z,17.20
2019-05-01T08:52:48.760Z,16.36
2019-05-01T08:55:20.146Z,16.29
2019-05-01T08:57:54.998Z,16.35
2019-05-01T09:00:26.385Z,16.58
2019-05-01T09:03:07.895Z,17.13
2019-05-01T09:05:33.634Z,17.27
2019-05-01T09:08:01.828Z,17.46
2019-05-01T09:10:32.976Z,17.36
2019-05-01T09:13:05.298Z,17.11
2019-05-01T09:15:35.845Z,16.38
2019-05-01T09:18:06.889Z,17.07
2019-05-01T09:20:39.670Z,17.31
2019-05-01T09:23:14.381Z,17.27
2019-05-01T09:26:14.751Z,17.14
2019-05-01T09:28:47.787Z,16.83
2019-05-01T09:31:21.236Z,16.79
2019-05-01T09:33:52.530Z,16.84
2019-05-01T09:36:24.361Z,16.39
2019-05-01T09:38:56.589Z,16.58
2019-05-01T09:41:38.058Z,16.80
2019-05-01T09:44:01.471Z,16.96
2019-05-01T09:46:34.681Z,16.64
2019-05-01T09:49:05.635Z,17.00
2019-05-01T09:51:55.911Z,17.25
2019-05-01T09:54:46.695Z,17.50
2019-05-01T09:57:17.985Z,16.84
2019-05-01T09:59:49.825Z,16.28
2019-05-01T10:02:22.407Z,16.72
2019-05-01T10:04:54.990Z,16.27
2019-05-01T10:07:28.881Z,16.01
2019-05-01T10:09:59.733Z,16.39
2019-05-01T10:12:31.561Z,16.54
2019-05-01T10:15:05.356Z,16.33
2019-05-01T10:17:36.092Z,16.86
2019-05-01T10:20:07.552Z,17.20
2019-05-01T10:22:41.135Z,17.44
2019-05-01T10:25:24.200Z,17.19
2019-05-01T10:28:07.240Z,17.51
2019-05-01T10:30:50.860Z,17.76
2019-05-01T10:33:28.974Z,18.05
2019-05-01T10:36:18.716Z,17.75
2019-05-01T10:38:51.063Z,18.01
2019-05-01T10:41:25.259Z,17.39
2019-05-01T10:43:59.952Z,17.52
2019-05-01T10:46:32.770Z,17.37
2019-05-01T10:49:06.441Z,18.07
2019-05-01T10:51:37.401Z,18.10
2019-05-01T10:54:08.972Z,18.39
2019-05-01T10:56:45.201Z,18.49
2019-05-01T10:59:16.805Z,18.67
2019-05-01T11:01:56.653Z,18.26
2019-05-01T11:04:29.765Z,18.23
2019-05-01T11:07:01.144Z,18.00
2019-05-01T11:09:32.166Z,18.56
2019-05-01T11:12:03.277Z,18.51
2019-05-01T11:14:34.076Z,18.48
2019-05-01T11:17:04.934Z,18.03
2019-05-01T11:19:39.925Z,17.85
2019-05-01T11:22:10.297Z,18.12
2019-05-01T11:24:44.011Z,18.83
2019-05-01T11:27:15.474Z,18.80
2019-05-01T11:29:47.416Z,19.17
2019-05-01T11:32:30.877Z,19.43
2019-05-01T11:35:21.233Z,19.44
2019-05-01T11:38:03.004Z,18.78
2019-05-01T11:40:37.691Z,19.49
2019-05-01T11:43:08.520Z,18.80
2019-05-01T11:45:40.058Z,19.66
2019-05-01T11:48:11.689Z,19.70
2019-05-01T11:50:47.216Z,19.83
2019-05-01T11:53:19.287Z,20.05
2019-05-01T11:55:55.351Z,19.30
2019-05-01T11:58:27.766Z,19.17
2019-05-01T12:01:00.959Z,19.50
2019-05-01T12:03:32.123Z,19.25
2019-05-01T12:06:04.133Z,20.14
2019-05-01T12:08:34.766Z,20.04
2019-05-01T12:11:09.515Z,20.58
2019-05-01T12:13:43.987Z,20.89
2019-05-01T12:16:24.038Z,21.31
2019-05-01T12:18:55.214Z,21.64
2019-05-01T12:21:31.079Z,21.49
2019-05-01T12:24:01.270Z,20.45
2019-05-01T12:26:33.406Z,20.45
2019-05-01T12:29:06.191Z,21.74
2019-05-01T12:31:37.328Z,21.82
2019-05-01T12:34:09.543Z,22.30
2019-05-01T12:36:44.595Z,22.58
2019-05-01T12:39:17.204Z,22.61
2019-05-01T12:41:56.202Z,23.00
2019-05-01T12:44:27.189Z,22.89
2019-05-01T12:47:08.467Z,23.66
2019-05-01T12:49:40.744Z,23.99
2019-05-01T12:52:19.336Z,24.16
2019-05-01T12:54:59.988Z,24.45
2019-05-01T12:57:30.676Z,24.75
2019-05-01T13:00:08.976Z,24.83
2019-05-01T13:02:38.018Z,25.16
2019-05-01T13:05:25.527Z,24.84
2019-05-01T13:07:58.857Z,25.16
2019-05-01T13:10:32.047Z,25.45
2019-05-01T13:13:05.699Z,25.26
2019-05-01T13:15:35.881Z,25.77
2019-05-01T13:18:06.719Z,26.11
2019-05-01T13:20:37.736Z,26.28
2019-05-01T13:23:09.595Z,25.99
2019-05-01T13:25:39.791Z,26.46
2019-05-01T13:28:38.655Z,26.78
2019-05-01T13:31:21.342Z,27.17
2019-05-01T13:33:52.525Z,27.26
2019-05-01T13:36:23.059Z,26.84
2019-05-01T13:38:54.115Z,27.47
2019-05-01T13:41:24.763Z,28.09
2019-05-01T13:43:55.052Z,28.26
2019-05-01T13:46:25.257Z,28.21
2019-05-01T13:48:55.456Z,28.77
2019-05-01T13:51:27.459Z,28.62
2019-05-01T13:53:58.010Z,29.21
2019-05-01T13:56:28.623Z,29.01
2019-05-01T13:59:05.380Z,29.54
2019-05-01T14:01:37.825Z,30.20
2019-05-01T14:04:10.364Z,29.42
2019-05-01T14:06:44.548Z,29.76
2019-05-01T14:09:22.879Z,30.00
2019-05-01T14:11:53.391Z,31.21
2019-05-01T14:14:25.533Z,32.12
2019-05-01T14:16:56.062Z,32.93
2019-05-01T14:19:28.635Z,32.56
2019-05-01T14:22:24.236Z,33.97
2019-05-01T14:24:57.980Z,34.19
2019-05-01T14:27:31.543Z,34.79
2019-05-01T14:30:04.488Z,35.22
2019-05-01T14:32:36.189Z,35.78
2019-05-01T14:35:09.509Z,35.83
2019-05-01T14:37:41.593Z,36.29
2019-05-01T14:40:12.768Z,34.71
2019-05-01T14:42:45.159Z,35.79
2019-05-01T14:45:19.025Z,35.60
2019-05-01T14:47:50.365Z,35.18
2019-05-01T14:50:23.040Z,35.17
2019-05-01T14:52:54.919Z,35.45
2019-05-01T14:55:27.172Z,35.91
2019-05-01T14:57:59.262Z,35.65
2019-05-01T15:00:30.212Z,35.44
2019-05-01T15:03:02.734Z,35.66
2019-05-01T15:05:38.405Z,35.86
2019-05-01T15:08:09.205Z,36.36
2019-05-01T15:10:41.993Z,36.03
2019-05-01T15:13:26.720Z,36.48
2019-05-01T15:16:23.192Z,36.61
2019-05-01T15:19:12.319Z,36.22
2019-05-01T15:21:44.480Z,36.30
2019-05-01T15:24:15.995Z,35.80
2019-05-01T15:26:47.467Z,34.40
2019-05-01T15:29:20.157Z,33.15
2019-05-01T15:31:53.527Z,32.03
2019-05-01T15:34:24.525Z,30.67
2019-05-01T15:36:57.313Z,29.91
2019-05-01T15:39:36.220Z,28.72
2019-05-01T15:42:28.218Z,28.41
2019-05-01T15:45:01.086Z,27.62
2019-05-01T15:47:34.252Z,27.20
2019-05-01T15:50:05.682Z,26.30
2019-05-01T15:52:36.669Z,26.06
2019-05-01T15:55:07.716Z,25.84
2019-05-01T15:57:38.034Z,25.36
2019-05-01T16:00:12.187Z,25.23
2019-05-01T16:02:45.333Z,25.04
2019-05-01T16:05:18.032Z,24.85
2019-05-01T16:07:49.380Z,24.49
2019-05-01T16:10:24.345Z,24.31
2019-05-01T16:13:00.607Z,24.21
2019-05-01T16:15:34.944Z,23.69
2019-05-01T16:18:06.452Z,23.45
2019-05-01T16:20:40.790Z,23.05
2019-05-01T16:23:13.676Z,23.21
2019-05-01T16:25:45.841Z,23.09
2019-05-01T16:28:19.386Z,23.18
2019-05-01T16:30:50.491Z,23.15
2019-05-01T16:33:23.227Z,22.86
2019-05-01T16:35:53.852Z,23.02
2019-05-01T16:38:34.578Z,23.05
2019-05-01T16:41:08.523Z,22.84
2019-05-01T16:43:40.470Z,22.84
2019-05-01T16:46:11.138Z,22.84
2019-05-01T16:48:43.378Z,22.80
2019-05-01T16:51:14.413Z,22.76
2019-05-01T16:53:45.045Z,22.66
2019-05-01T16:56:15.284Z,22.49
2019-05-01T16:58:45.800Z,22.49
2019-05-01T17:01:31.272Z,22.31
2019-05-01T17:04:06.628Z,22.30
2019-05-01T17:06:57.824Z,22.26
2019-05-01T17:09:46.501Z,22.26
2019-05-01T17:12:21.979Z,22.07
2019-05-01T17:14:53.993Z,21.82
2019-05-01T17:17:25.465Z,21.84
2019-05-01T17:19:56.716Z,21.89
2019-05-01T17:22:31.009Z,21.95
2019-05-01T17:25:03.417Z,21.86
2019-05-01T17:27:35.806Z,21.81
2019-05-01T17:30:15.149Z,21.66
2019-05-01T17:32:48.430Z,21.66
2019-05-01T17:35:21.122Z,21.71
2019-05-01T17:37:52.632Z,21.60
2019-05-01T17:40:24.421Z,21.58
2019-05-01T17:42:55.024Z,21.58
2019-05-01T17:45:29.977Z,21.59
2019-05-01T17:48:01.802Z,21.40
2019-05-01T17:50:34.712Z,21.36
2019-05-01T17:53:06.493Z,21.45
2019-05-01T17:55:37.833Z,21.35
2019-05-01T17:58:11.187Z,21.28
2019-05-01T18:00:59.775Z,21.24
2019-05-01T18:03:55.819Z,21.12
2019-05-01T18:06:31.270Z,21.09
2019-05-01T18:09:08.228Z,21.05
2019-05-01T18:11:37.242Z,20.93
2019-05-01T18:14:07.969Z,20.91
2019-05-01T18:16:40.513Z,20.85
2019-05-01T18:19:11.977Z,20.79
2019-05-01T18:21:51.249Z,20.65
2019-05-01T18:24:58.429Z,20.64
2019-05-01T18:27:49.805Z,20.61
2019-05-01T18:30:21.947Z,20.40
2019-05-01T18:32:53.530Z,20.39
2019-05-01T18:35:30.982Z,20.32
2019-05-01T18:38:20.644Z,20.27
2019-05-01T18:40:58.101Z,20.21
2019-05-01T18:43:32.085Z,20.07
2019-05-01T18:46:02.127Z,20.06
2019-05-01T18:48:33.124Z,20.09
2019-05-01T18:51:03.878Z,20.01
2019-05-01T18:53:34.867Z,19.96
2019-05-01T18:56:09.641Z,19.89
2019-05-01T18:58:41.615Z,19.93
2019-05-01T19:01:15.528Z,19.84
2019-05-01T19:03:47.906Z,19.69
2019-05-01T19:06:20.100Z,19.66
2019-05-01T19:08:51.446Z,19.69
2019-05-01T19:11:26.013Z,19.73
2019-05-01T19:14:00.767Z,19.69
2019-05-01T19:16:31.138Z,19.69
2019-05-01T19:19:04.491Z,19.69
2019-05-01T19:21:36.079Z,19.48
2019-05-01T19:24:06.693Z,19.48
2019-05-01T19:26:46.671Z,19.47
2019-05-01T19:29:26.892Z,19.51
2019-05-01T19:31:59.234Z,19.35
2019-05-01T19:34:32.144Z,19.35
2019-05-01T19:37:04.602Z,19.37
2019-05-01T19:39:43.418Z,19.39
2019-05-01T19:42:08.939Z,19.31
2019-05-01T19:44:40.984Z,19.31
2019-05-01T19:47:11.342Z,19.07
2019-05-01T19:50:07.482Z,19.20
2019-05-01T19:52:39.913Z,19.20
2019-05-01T19:55:11.182Z,19.11
2019-05-01T19:57:41.810Z,19.10
2019-05-01T20:00:13.475Z,19.12
2019-05-01T20:02:46.678Z,19.12
2019-05-01T20:05:21.986Z,19.06
2019-05-01T20:07:51.142Z,19.07
2019-05-01T20:10:23.994Z,19.06
2019-05-01T20:12:55.416Z,19.03
2019-05-01T20:15:26.629Z,19.03
2019-05-01T20:17:58.411Z,19.03
2019-05-01T20:20:29.144Z,18.92
2019-05-01T20:23:06.483Z,18.98
2019-05-01T20:25:38.714Z,18.89
2019-05-01T20:28:10.695Z,18.87
2019-05-01T20:30:41.591Z,18.91
2019-05-01T20:33:12.539Z,18.93
2019-05-01T20:35:46.490Z,18.84
2019-05-01T20:38:17.181Z,18.85
2019-05-01T20:40:47.790Z,18.84
2019-05-01T20:43:20.599Z,18.85
2019-05-01T20:45:53.098Z,18.82
2019-05-01T20:48:25.193Z,18.80
2019-05-01T20:50:57.067Z,18.77
2019-05-01T20:53:28.376Z,18.75
2019-05-01T20:56:05.807Z,18.74
2019-05-01T20:58:36.813Z,18.72
2019-05-01T21:01:08.529Z,18.68
2019-05-01T21:03:41.739Z,18.52
2019-05-01T21:06:21.559Z,18.58
2019-05-01T21:09:13.882Z,18.52
2019-05-01T21:12:04.193Z,18.59
2019-05-01T21:14:25.093Z,18.59
2019-05-01T21:16:57.423Z,18.59
2019-05-01T21:19:32.509Z,18.57
2019-05-01T21:22:07.677Z,18.58
2019-05-01T21:24:39.792Z,18.57
2019-05-01T21:27:10.680Z,18.54
2019-05-01T21:29:40.928Z,18.53
2019-05-01T21:32:17.943Z,18.47
2019-05-01T21:34:46.626Z,18.51
2019-05-01T21:37:19.046Z,18.48
2019-05-01T21:39:50.451Z,18.50
2019-05-01T21:42:21.554Z,18.42
2019-05-01T21:45:07.721Z,18.41
2019-05-01T21:47:42.540Z,18.20
2019-05-01T21:50:17.849Z,18.25
2019-05-01T21:52:48.502Z,18.28
2019-05-01T21:55:20.540Z,18.28
2019-05-01T21:57:55.121Z,18.26
2019-05-01T22:00:29.222Z,18.23
2019-05-01T22:03:03.071Z,18.14
2019-05-01T22:05:39.351Z,18.15
2019-05-01T22:08:09.435Z,18.07
2019-05-01T22:10:51.770Z,18.07
2019-05-01T22:13:20.416Z,18.06
2019-05-01T22:15:56.032Z,17.99
2019-05-01T22:18:37.300Z,18.03
2019-05-01T22:21:13.393Z,18.03
2019-05-01T22:24:04.193Z,18.03
2019-05-01T22:26:39.571Z,17.92
2019-05-01T22:29:13.368Z,17.90
2019-05-01T22:31:57.448Z,17.84
2019-05-01T22:34:38.634Z,17.91
2019-05-01T22:37:09.756Z,17.85
2019-05-01T22:39:43.307Z,17.74
2019-05-01T22:42:13.485Z,17.78
2019-05-01T22:44:44.470Z,17.74
2019-05-01T22:47:16.371Z,17.74
2019-05-01T22:49:51.024Z,17.73
2019-05-01T22:52:21.633Z,17.74
2019-05-01T22:54:52.556Z,17.68
2019-05-01T22:57:24.966Z,17.66
2019-05-01T22:59:57.078Z,17.57
2019-05-01T23:02:39.253Z,17.54
2019-05-01T23:05:11.900Z,17.55
2019-05-01T23:07:43.249Z,17.51
2019-05-01T23:10:13.863Z,17.47
2019-05-01T23:12:44.990Z,17.49
2019-05-01T23:15:21.433Z,17.43
2019-05-01T23:17:53.325Z,17.40
2019-05-01T23:20:29.577Z,17.39
2019-05-01T23:23:00.074Z,17.34
2019-05-01T23:25:36.584Z,17.37
2019-05-01T23:28:06.027Z,17.33
2019-05-01T23:30:37.036Z,17.38
2019-05-01T23:33:07.362Z,17.32
2019-05-01T23:35:41.757Z,17.30
2019-05-01T23:38:16.236Z,17.24
2019-05-01T23:40:50.975Z,17.14
2019-05-01T23:43:23.083Z,17.13
2019-05-01T23:45:57.116Z,16.92
2019-05-01T23:48:29.609Z,17.00
2019-05-01T23:51:02.614Z,16.99
2019-05-01T23:53:33.462Z,16.91
2019-05-01T23:56:06.715Z,16.88
2019-05-01T23:58:38.698Z,16.83
